Blue Oak Ranch Reserve, California Weather observations

Data are for 10 minute period ending at time listed.
 Day   Time   Solar   Ave.   Ave.  Ave.  Vector  Max.   Baro.   Total    
  of    of     Rad.   Air    Rel.  Wind   Wind   Wind  Press.  Precip.   
Year   Day            Temp.  Hum.  Speed  Dir.   Gust                    
2017   (PST)  Kw/m2    F      %     mph   deg.    mph    mb.     in.     
-------------------------------------------------------------------------
 112    7:30   0.34   63.4    39    3.0   300     6.0   949.1    0.00 
 112    7:40   0.37   62.5    40    4.7   295     7.8   948.9    0.00 
 112    7:50   0.42   62.8    41    5.7   286     9.2   948.8    0.00 
 112    8:00   0.44   63.6    40    5.6   284     8.4   948.7    0.00 
 112    8:10   0.49   63.1    41    6.4   288     8.2   948.8    0.00 
 112    8:20   0.55   62.8    42    5.5   291     7.6   948.7    0.00 
 112    8:30   0.53   64.0    42    4.7   286     6.9   948.7    0.00 
 112    8:40   0.53   65.0    41    2.4   278     4.7   948.7    0.00 
 112    8:50   0.60   64.8    39    4.9   242     9.2   948.9    0.00 
 112    9:00   0.40   63.5    41    4.1   244     9.3   949.0    0.00 
 112    9:10   0.62   63.5    44    3.5   259     6.6   948.9    0.00 
 112    9:20   0.62   64.0    43    5.2   242     9.5   949.0    0.00 
 112    9:30   0.68   64.3    43    4.2   272     7.1   949.1    0.00 
 112    9:40   0.68   64.7    44    4.5   256     7.2   949.1    0.00 
 112    9:50   0.65   64.7    45    4.9   240    10.2   949.1    0.00 
 112   10:00   0.68   63.7    44    6.2   256    10.6   949.2    0.00 
 112   10:10   0.70   63.1    43    6.0   234     9.8   949.2    0.00 
 112   10:20   0.72   61.8    43    6.3   230    10.8   949.2    0.00 
 112   10:30   0.72   62.2    43    4.1   231     8.6   949.1    0.00 
 112   10:40   0.79   63.6    40    5.4   259     8.8   949.2    0.00 
 112   10:50   0.85   64.1    38    5.5   249     9.4   949.3    0.00 
 112   11:00   0.82   64.1    38    3.4   230     6.6   949.2    0.00 
 112   11:10   0.79   65.2    39    5.0   233     7.5   949.1    0.00 
 112   11:20   0.77   65.7    38    4.6   257     9.6   949.1    0.00 
 112   11:30   0.68   66.2    38    4.9   242     8.0   949.1    0.00 
 112   11:40   0.74   65.5    40    4.7   256     9.9   949.1    0.00 
 112   11:50   0.78   66.3    42    5.4   253    10.3   949.2    0.00 
 112   12:00   0.63   65.4    45    5.1   240     9.0   949.2    0.00 
 112   12:10   0.66   65.4    45    5.5   251     9.2   949.2    0.00 
 112   12:20   0.73   65.1    47    5.8   232    10.7   949.2    0.00 
 112   12:30   0.73   65.2    49    5.2   233     8.9   949.1    0.00 
 112   12:40   0.63   65.2    51    4.4   227     7.5   949.1    0.00 
 112   12:50   0.49   64.6    53    4.9   241     9.1   949.1    0.00 
 112   13:00   0.47   65.1    57    4.1   251     7.6   949.0    0.00 
 112   13:10   0.53   64.8    58    6.2   257    10.2   949.2    0.00 
 112   13:20   0.58   64.3    57    6.0   286     8.7   949.1    0.00 
 112   13:30   0.64   64.7    58    6.1   286    10.4   949.1    0.00 
 112   13:40   0.61   64.5    58    6.2   290     9.8   949.1    0.00 
 112   13:50   0.56   64.2    58    6.7   288    10.0   949.1    0.00 
 112   14:00   0.51   63.9    58    7.4   279    11.5   949.2    0.00 
 112   14:10   0.57   63.9    57    7.1   273    12.1   949.1    0.00 
 112   14:20   0.57   63.2    59    6.4   291    12.0   949.0    0.00 
 112   14:30   0.58   63.0    59    5.8   297     9.9   948.8    0.00 
 112   14:40   0.49   63.4    59    6.0   280     9.8   948.7    0.00 
 112   14:50   0.57   63.8    59    6.8   282     9.9   948.6    0.00 
 112   15:00   0.48   63.7    59    5.9   292     9.6   948.4    0.00 
 112   15:10   0.36   62.9    61    7.3   286    11.4   948.6    0.00 
 112   15:20   0.33   62.1    64    5.4   295    11.1   948.4    0.00 
 112   15:30   0.32   62.1    66    6.7   289    10.5   948.4    0.00 
 112   15:40   0.30   61.6    68    7.2   288    10.2   948.3    0.00 
 112   15:50   0.27   61.3    71    4.9   288     7.5   948.1    0.00 
 112   16:00   0.23   61.0    72    5.2   285     8.8   947.9    0.00 
 112   16:10   0.28   61.3    70    4.2   275     7.9   947.6    0.00 
 112   16:20   0.27   61.8    68    5.7   278     7.6   947.8    0.00 
 112   16:30   0.25   61.6    68    6.0   286     8.5   947.9    0.00 
 112   16:40   0.23   61.1    70    6.2   285     9.5   947.9    0.00 
 112   16:50   0.19   60.9    72    4.7   269     8.9   947.6    0.00 
 112   17:00   0.14   60.7    74    4.8   282     8.5   947.6    0.00 
 112   17:10   0.12   59.8    75    6.3   285     8.4   947.4    0.00 
 112   17:20   0.12   59.5    76    4.4   283     8.2   947.4    0.00 
 112   17:30   0.10   59.5    76    3.2   278     6.9   947.1    0.00 
 112   17:40   0.07   58.9    77    6.7   283     9.5   947.2    0.00 
 112   17:50   0.07   58.4    74    5.9   281     9.1   947.3    0.00 
 112   18:00   0.05   57.7    75    7.2   294    11.0   947.4    0.00 
 112   18:10   0.02   56.0    78    7.6   300    13.1   947.5    0.00 
 112   18:20   0.02   54.8    83    7.4   298    12.1   947.5    0.00 
 112   18:30   0.05   54.0    86    4.9   303     9.1   947.2    0.00 
 112   18:40   0.05   54.1    86    7.6   287    11.2   947.8    0.00 
 112   18:50   0.02   53.6    86    5.7   283     8.9   947.8    0.00 
 112   19:00   0.01   53.1    86    4.7   286     6.4   947.9    0.00 
 112   19:10   0.00   52.8    87    2.4   279     5.0   947.8    0.00 
 112   19:20   0.00   52.5    87    1.2   170     2.0   947.8    0.00 
 112   19:30   0.00   52.1    88    0.5   266     1.6   947.8    0.00 
 112   19:40   0.00   51.9    89    1.9    20     2.9   947.9    0.00 
 112   19:50   0.00   51.6    88    1.1   260     2.6   948.1    0.00 
 112   20:00   0.00   50.5    88    2.3   274     4.0   948.3    0.00 
 112   20:10   0.00   50.0    89    2.3   300     4.5   948.5    0.00 
 112   20:20   0.00   49.0    90    1.9   355     4.4   948.6    0.00 
 112   20:30   0.00   48.3    90    1.9   330     3.7   948.5    0.00 
 112   20:40   0.00   47.8    91    0.9   317     3.7   948.5    0.00 
 112   20:50   0.00   46.7    92    1.5   328     5.8   948.5    0.00 
 112   21:00   0.00   47.0    93    2.7   323     5.8   948.6    0.00 
 112   21:10   0.00   47.2    93    3.2   321     6.3   948.7    0.00 
 112   21:20   0.00   46.3    92    0.5    38     1.3   948.7    0.00 
 112   21:30   0.00   44.7    92    1.9    58     3.3   948.5    0.00 
 112   21:40   0.00   44.0    93    0.9    11     3.0   948.4    0.00 
 112   21:50   0.00   43.8    94    1.9   310     3.3   948.5    0.00 
 112   22:00   0.00   43.5    93    1.3    54     2.9   948.6    0.00 
 112   22:10   0.00   42.9    93    1.2   350     2.3   948.4    0.00 
 112   22:20   0.00   42.4    94    0.5   315     1.8   948.5    0.00 
 112   22:30   0.00   42.4    94    2.0   336     6.9   948.6    0.00 
 112   22:40   0.00   44.2    93    3.2   330     7.8   948.5    0.00 
 112   22:50   0.00   44.4    91    1.3    16     3.9   948.3    0.00 
 112   23:00   0.00   44.0    91    1.0   344     4.9   948.2    0.00 
 112   23:10   0.00   43.4    92    1.1   320     4.9   948.0    0.00 
 112   23:20   0.00   43.2    92    1.6    25     5.0   947.9    0.00 
 112   23:30   0.00   43.4    92    1.4    18     3.2   948.0    0.00 
 112   23:40   0.00   43.7    93    1.9    25     3.1   947.9    0.00 
 112   23:50   0.00   44.6    92    0.9   335     3.1   947.9    0.00 
 113    0:00   0.00   44.7    92    0.9   309     3.4   947.9    0.00 
 113    0:10   0.00   44.9    92    3.9   330    10.7   947.9    0.00 
 113    0:20   0.00   45.5    90    3.4   332     7.1   947.8    0.00 
 113    0:30   0.00   45.7    90    2.6   318     6.7   947.8    0.00 
 113    0:40   0.00   46.0    90    3.8   306     7.8   947.8    0.00 
 113    0:50   0.00   46.0    91    3.8   306     9.6   947.7    0.00 
 113    1:00   0.00   46.0    90    2.4   319     5.4   947.4    0.00 
 113    1:10   0.00   45.9    89    3.6   317     7.0   947.5    0.00 
 113    1:20   0.00   45.9    90    3.0   318     6.6   947.5    0.00 
 113    1:30   0.00   46.0    90    2.1   353     4.3   947.4    0.00 
 113    1:40   0.00   46.2    89    3.0   317     6.3   947.4    0.00 
 113    1:50   0.00   46.3    90    3.3   294     7.9   947.4    0.00 
 113    2:00   0.00   46.4    90    3.6   310     7.1   947.4    0.00 
 113    2:10   0.00   46.4    91    4.9   307     7.6   947.4    0.00 
 113    2:20   0.00   46.4    90    4.7   300     8.7   947.4    0.00 
 113    2:30   0.00   46.4    90    3.2   297     5.0   947.5    0.00 
 113    2:40   0.00   46.4    90    3.8   312     6.7   947.5    0.00 
 113    2:50   0.00   46.4    88    3.9   322     7.3   947.4    0.00 
 113    3:00   0.00   46.4    89    1.8   318     3.3   947.4    0.00 
 113    3:10   0.00   46.3    90    1.6   296     2.9   947.3    0.00 
 113    3:20   0.00   46.4    90    2.1   338     5.5   947.1    0.00 
 113    3:30   0.00   46.3    89    2.7   344     6.6   946.8    0.00 
 113    3:40   0.00   46.2    88    2.3   300     3.9   946.9    0.00 
 113    3:50   0.00   46.3    89    4.3   274     8.9   947.4    0.00 
 113    4:00   0.00   46.4    91    6.3   285    10.3   947.7    0.00 
 113    4:10   0.00   46.4    91    7.2   293    12.0   947.8    0.00 
 113    4:20   0.00   46.3    91    6.1   314    12.1   947.9    0.00 
 113    4:30   0.00   46.3    91    4.2   318     7.1   947.7    0.00 
 113    4:40   0.00   46.2    90    2.2   318     5.9   947.6    0.00 
 113    4:50   0.00   46.3    91    3.7   296     8.0   947.7    0.00 
 113    5:00   0.00   46.1    91    4.0   301     8.6   947.7    0.00 
 113    5:10   0.00   46.0    90    4.4   296     9.8   947.7    0.00 
 113    5:20   0.00   46.0    90    3.1   302     5.7   947.8    0.00 
 113    5:30   0.00   45.9    91    5.0   304    10.5   947.8    0.00 
 113    5:40   0.01   45.9    90    5.4   304     8.5   947.9    0.00 
 113    5:50   0.02   46.0    91    4.4   284     7.2   948.0    0.00 
 113    6:00   0.04   45.9    90    4.1   322     7.9   947.9    0.00 
 113    6:10   0.06   46.0    87    4.6   311    10.7   947.9    0.00 
 113    6:20   0.05   46.2    87    4.6   287     8.3   947.9    0.00 
 113    6:30   0.06   46.2    89    4.8   296    10.6   947.9    0.00 
 113    6:40   0.10   46.4    89    4.0   304     6.1   948.0    0.00 
 113    6:50   0.11   47.0    87    4.2   309     7.6   948.0    0.00 
 113    7:00   0.30   48.0    84    3.5   329     7.2   948.0    0.00 
 113    7:10   0.33   49.1    80    4.5   314     9.1   948.0    0.00 
 113    7:20   0.33   50.4    77    2.8   306     6.3   947.9    0.00 

Return to Blue Oak Ranch Reserve graphs page.


Western Regional Climate Center,wrcc@dri.edu